sensor_id;sensor_type;location;lat;lon;timestamp;P1;durP1;ratioP1;P2;durP2;ratioP2
12359;SDS011;6244;51.460;7.090;2023-08-08T00:04:32;4.15;;;3.08;;
12359;SDS011;6244;51.460;7.090;2023-08-08T00:09:29;3.92;;;2.90;;
12359;SDS011;6244;51.460;7.090;2023-08-08T00:14:25;8.68;;;3.10;;
12359;SDS011;6244;51.460;7.090;2023-08-08T00:19:23;4.20;;;3.05;;
12359;SDS011;6244;51.460;7.090;2023-08-08T00:24:20;5.07;;;3.05;;
12359;SDS011;6244;51.460;7.090;2023-08-08T00:29:16;6.78;;;3.22;;
12359;SDS011;6244;51.460;7.090;2023-08-08T00:34:13;6.40;;;3.13;;
12359;SDS011;6244;51.460;7.090;2023-08-08T00:39:11;5.05;;;3.20;;
12359;SDS011;6244;51.460;7.090;2023-08-08T00:44:08;4.85;;;3.17;;
12359;SDS011;6244;51.460;7.090;2023-08-08T00:49:06;5.72;;;3.33;;
12359;SDS011;6244;51.460;7.090;2023-08-08T00:54:03;4.63;;;2.95;;
12359;SDS011;6244;51.460;7.090;2023-08-08T00:59:01;8.75;;;2.97;;
12359;SDS011;6244;51.460;7.090;2023-08-08T01:03:58;5.90;;;3.22;;
12359;SDS011;6244;51.460;7.090;2023-08-08T01:08:57;5.43;;;3.08;;
12359;SDS011;6244;51.460;7.090;2023-08-08T01:13:55;3.65;;;2.65;;
12359;SDS011;6244;51.460;7.090;2023-08-08T01:18:54;7.35;;;3.00;;
12359;SDS011;6244;51.460;7.090;2023-08-08T01:23:52;6.53;;;3.40;;
12359;SDS011;6244;51.460;7.090;2023-08-08T01:28:53;6.80;;;3.30;;
12359;SDS011;6244;51.460;7.090;2023-08-08T01:33:50;6.80;;;3.55;;
12359;SDS011;6244;51.460;7.090;2023-08-08T01:38:47;4.47;;;3.05;;
12359;SDS011;6244;51.460;7.090;2023-08-08T01:43:47;5.43;;;3.10;;
12359;SDS011;6244;51.460;7.090;2023-08-08T01:48:46;5.07;;;3.33;;
12359;SDS011;6244;51.460;7.090;2023-08-08T01:53:42;4.13;;;3.28;;
12359;SDS011;6244;51.460;7.090;2023-08-08T01:58:39;5.25;;;3.47;;
12359;SDS011;6244;51.460;7.090;2023-08-08T02:03:35;4.28;;;3.10;;
12359;SDS011;6244;51.460;7.090;2023-08-08T02:08:33;5.57;;;3.28;;
12359;SDS011;6244;51.460;7.090;2023-08-08T02:13:30;7.18;;;3.25;;
12359;SDS011;6244;51.460;7.090;2023-08-08T02:18:26;9.20;;;3.78;;
12359;SDS011;6244;51.460;7.090;2023-08-08T02:23:23;5.40;;;3.42;;
12359;SDS011;6244;51.460;7.090;2023-08-08T02:28:22;5.53;;;3.50;;
12359;SDS011;6244;51.460;7.090;2023-08-08T02:33:19;5.97;;;3.33;;
12359;SDS011;6244;51.460;7.090;2023-08-08T02:38:15;5.10;;;3.35;;
12359;SDS011;6244;51.460;7.090;2023-08-08T02:43:12;5.38;;;3.15;;
12359;SDS011;6244;51.460;7.090;2023-08-08T02:48:10;4.80;;;3.40;;
12359;SDS011;6244;51.460;7.090;2023-08-08T02:53:06;6.50;;;3.47;;
12359;SDS011;6244;51.460;7.090;2023-08-08T02:58:03;5.78;;;3.92;;
12359;SDS011;6244;51.460;7.090;2023-08-08T03:03:00;6.32;;;3.45;;
12359;SDS011;6244;51.460;7.090;2023-08-08T03:07:59;6.43;;;3.38;;
12359;SDS011;6244;51.460;7.090;2023-08-08T03:12:55;6.72;;;3.70;;
12359;SDS011;6244;51.460;7.090;2023-08-08T03:17:52;5.30;;;3.42;;
12359;SDS011;6244;51.460;7.090;2023-08-08T03:22:48;5.40;;;3.42;;
12359;SDS011;6244;51.460;7.090;2023-08-08T03:27:46;6.13;;;3.83;;
12359;SDS011;6244;51.460;7.090;2023-08-08T03:32:43;6.90;;;3.72;;
12359;SDS011;6244;51.460;7.090;2023-08-08T03:37:39;6.60;;;3.75;;
12359;SDS011;6244;51.460;7.090;2023-08-08T03:42:36;6.90;;;5.05;;
12359;SDS011;6244;51.460;7.090;2023-08-08T03:47:34;8.23;;;4.57;;
12359;SDS011;6244;51.460;7.090;2023-08-08T03:52:31;8.93;;;4.50;;
12359;SDS011;6244;51.460;7.090;2023-08-08T03:57:29;6.57;;;4.55;;
12359;SDS011;6244;51.460;7.090;2023-08-08T04:02:26;8.77;;;4.60;;
12359;SDS011;6244;51.460;7.090;2023-08-08T04:07:24;8.18;;;4.70;;
12359;SDS011;6244;51.460;7.090;2023-08-08T04:12:21;6.55;;;4.75;;
12359;SDS011;6244;51.460;7.090;2023-08-08T04:17:17;7.20;;;4.82;;
12359;SDS011;6244;51.460;7.090;2023-08-08T04:22:14;8.13;;;4.57;;
12359;SDS011;6244;51.460;7.090;2023-08-08T04:27:12;8.38;;;4.60;;
12359;SDS011;6244;51.460;7.090;2023-08-08T04:32:09;8.48;;;5.07;;
12359;SDS011;6244;51.460;7.090;2023-08-08T04:37:05;8.80;;;5.03;;
12359;SDS011;6244;51.460;7.090;2023-08-08T04:42:02;8.50;;;5.75;;
12359;SDS011;6244;51.460;7.090;2023-08-08T04:47:00;9.07;;;4.80;;
12359;SDS011;6244;51.460;7.090;2023-08-08T04:51:57;9.52;;;5.22;;
12359;SDS011;6244;51.460;7.090;2023-08-08T04:56:53;8.80;;;5.07;;
12359;SDS011;6244;51.460;7.090;2023-08-08T05:01:50;10.30;;;6.55;;
12359;SDS011;6244;51.460;7.090;2023-08-08T05:06:48;11.70;;;5.57;;
12359;SDS011;6244;51.460;7.090;2023-08-08T05:11:44;10.68;;;6.60;;
12359;SDS011;6244;51.460;7.090;2023-08-08T05:16:41;14.13;;;7.00;;
12359;SDS011;6244;51.460;7.090;2023-08-08T05:21:37;15.13;;;6.82;;
12359;SDS011;6244;51.460;7.090;2023-08-08T05:26:35;13.60;;;7.32;;
12359;SDS011;6244;51.460;7.090;2023-08-08T05:31:32;15.90;;;7.22;;
12359;SDS011;6244;51.460;7.090;2023-08-08T05:36:28;14.60;;;8.18;;
12359;SDS011;6244;51.460;7.090;2023-08-08T05:41:25;13.90;;;8.10;;
12359;SDS011;6244;51.460;7.090;2023-08-08T05:46:23;20.17;;;9.38;;
12359;SDS011;6244;51.460;7.090;2023-08-08T05:51:19;16.83;;;8.52;;
12359;SDS011;6244;51.460;7.090;2023-08-08T05:56:16;17.52;;;10.25;;
12359;SDS011;6244;51.460;7.090;2023-08-08T06:01:12;18.52;;;10.63;;
12359;SDS011;6244;51.460;7.090;2023-08-08T06:06:10;17.58;;;10.05;;
12359;SDS011;6244;51.460;7.090;2023-08-08T06:11:07;19.23;;;10.63;;
12359;SDS011;6244;51.460;7.090;2023-08-08T06:16:03;15.50;;;9.70;;
12359;SDS011;6244;51.460;7.090;2023-08-08T06:21:02;17.70;;;11.15;;
12359;SDS011;6244;51.460;7.090;2023-08-08T06:26:00;19.08;;;10.10;;
12359;SDS011;6244;51.460;7.090;2023-08-08T06:30:56;19.55;;;11.38;;
12359;SDS011;6244;51.460;7.090;2023-08-08T06:35:54;20.60;;;11.30;;
12359;SDS011;6244;51.460;7.090;2023-08-08T06:40:50;18.98;;;10.57;;
12359;SDS011;6244;51.460;7.090;2023-08-08T06:45:48;19.92;;;11.40;;
12359;SDS011;6244;51.460;7.090;2023-08-08T06:50:45;22.45;;;11.80;;
12359;SDS011;6244;51.460;7.090;2023-08-08T06:55:41;21.77;;;12.80;;
12359;SDS011;6244;51.460;7.090;2023-08-08T07:00:38;19.08;;;10.95;;
12359;SDS011;6244;51.460;7.090;2023-08-08T07:05:36;19.35;;;12.13;;
12359;SDS011;6244;51.460;7.090;2023-08-08T07:10:33;28.83;;;13.13;;
12359;SDS011;6244;51.460;7.090;2023-08-08T07:15:30;18.35;;;11.75;;
12359;SDS011;6244;51.460;7.090;2023-08-08T07:20:27;23.05;;;12.52;;
12359;SDS011;6244;51.460;7.090;2023-08-08T07:25:25;20.10;;;12.25;;
12359;SDS011;6244;51.460;7.090;2023-08-08T07:30:22;20.65;;;11.43;;
12359;SDS011;6244;51.460;7.090;2023-08-08T07:35:20;18.73;;;11.93;;
12359;SDS011;6244;51.460;7.090;2023-08-08T07:40:17;18.38;;;12.38;;
12359;SDS011;6244;51.460;7.090;2023-08-08T07:45:15;20.92;;;11.07;;
12359;SDS011;6244;51.460;7.090;2023-08-08T07:50:13;17.27;;;10.40;;
12359;SDS011;6244;51.460;7.090;2023-08-08T07:55:10;17.67;;;9.75;;
12359;SDS011;6244;51.460;7.090;2023-08-08T08:00:07;12.63;;;8.73;;
12359;SDS011;6244;51.460;7.090;2023-08-08T08:05:08;16.27;;;8.07;;
12359;SDS011;6244;51.460;7.090;2023-08-08T08:10:06;10.23;;;7.40;;
12359;SDS011;6244;51.460;7.090;2023-08-08T08:15:06;11.27;;;7.00;;
12359;SDS011;6244;51.460;7.090;2023-08-08T08:20:04;10.23;;;7.00;;
12359;SDS011;6244;51.460;7.090;2023-08-08T08:25:07;11.90;;;5.70;;
12359;SDS011;6244;51.460;7.090;2023-08-08T08:30:04;7.82;;;5.03;;
12359;SDS011;6244;51.460;7.090;2023-08-08T08:35:02;9.85;;;4.93;;
12359;SDS011;6244;51.460;7.090;2023-08-08T08:39:59;7.57;;;4.43;;
12359;SDS011;6244;51.460;7.090;2023-08-08T08:44:57;6.70;;;4.10;;
12359;SDS011;6244;51.460;7.090;2023-08-08T08:49:55;7.18;;;3.85;;
12359;SDS011;6244;51.460;7.090;2023-08-08T08:54:52;8.75;;;4.78;;
12359;SDS011;6244;51.460;7.090;2023-08-08T08:59:49;9.38;;;4.72;;
12359;SDS011;6244;51.460;7.090;2023-08-08T09:04:47;9.20;;;4.43;;
12359;SDS011;6244;51.460;7.090;2023-08-08T09:09:44;7.18;;;4.10;;
12359;SDS011;6244;51.460;7.090;2023-08-08T09:14:41;7.32;;;4.45;;
12359;SDS011;6244;51.460;7.090;2023-08-08T09:19:37;9.80;;;4.13;;
12359;SDS011;6244;51.460;7.090;2023-08-08T09:24:39;7.80;;;3.33;;
12359;SDS011;6244;51.460;7.090;2023-08-08T09:29:35;6.07;;;3.38;;
12359;SDS011;6244;51.460;7.090;2023-08-08T09:34:33;6.15;;;3.20;;
12359;SDS011;6244;51.460;7.090;2023-08-08T09:39:29;5.15;;;3.00;;
12359;SDS011;6244;51.460;7.090;2023-08-08T09:44:28;4.57;;;2.80;;
12359;SDS011;6244;51.460;7.090;2023-08-08T09:49:25;5.13;;;2.72;;
12359;SDS011;6244;51.460;7.090;2023-08-08T09:54:22;7.80;;;3.33;;
12359;SDS011;6244;51.460;7.090;2023-08-08T09:59:20;9.25;;;3.40;;
12359;SDS011;6244;51.460;7.090;2023-08-08T10:04:18;5.60;;;3.20;;
12359;SDS011;6244;51.460;7.090;2023-08-08T10:09:15;6.10;;;3.33;;
12359;SDS011;6244;51.460;7.090;2023-08-08T10:14:12;7.75;;;3.60;;
12359;SDS011;6244;51.460;7.090;2023-08-08T10:19:10;7.75;;;3.70;;
12359;SDS011;6244;51.460;7.090;2023-08-08T10:24:08;6.65;;;3.10;;
12359;SDS011;6244;51.460;7.090;2023-08-08T10:29:06;4.97;;;3.00;;
12359;SDS011;6244;51.460;7.090;2023-08-08T10:34:03;9.27;;;3.55;;
12359;SDS011;6244;51.460;7.090;2023-08-08T10:39:00;6.20;;;3.70;;
12359;SDS011;6244;51.460;7.090;2023-08-08T10:43:58;8.23;;;3.92;;
12359;SDS011;6244;51.460;7.090;2023-08-08T10:48:56;9.77;;;3.55;;
12359;SDS011;6244;51.460;7.090;2023-08-08T10:53:54;10.05;;;3.60;;
12359;SDS011;6244;51.460;7.090;2023-08-08T10:58:51;5.88;;;3.38;;
12359;SDS011;6244;51.460;7.090;2023-08-08T11:03:49;6.45;;;3.35;;
12359;SDS011;6244;51.460;7.090;2023-08-08T11:08:46;5.50;;;3.45;;
12359;SDS011;6244;51.460;7.090;2023-08-08T11:13:42;6.88;;;3.53;;
12359;SDS011;6244;51.460;7.090;2023-08-08T11:18:41;4.70;;;3.10;;
12359;SDS011;6244;51.460;7.090;2023-08-08T11:23:39;6.85;;;3.47;;
12359;SDS011;6244;51.460;7.090;2023-08-08T11:28:48;5.97;;;3.40;;
12359;SDS011;6244;51.460;7.090;2023-08-08T11:33:46;7.53;;;3.83;;
12359;SDS011;6244;51.460;7.090;2023-08-08T11:38:44;4.80;;;3.35;;
12359;SDS011;6244;51.460;7.090;2023-08-08T11:43:41;6.75;;;3.20;;
12359;SDS011;6244;51.460;7.090;2023-08-08T11:48:38;7.45;;;3.47;;
12359;SDS011;6244;51.460;7.090;2023-08-08T11:53:35;7.38;;;2.83;;
12359;SDS011;6244;51.460;7.090;2023-08-08T11:58:33;4.72;;;3.10;;
12359;SDS011;6244;51.460;7.090;2023-08-08T12:03:32;8.60;;;3.47;;
12359;SDS011;6244;51.460;7.090;2023-08-08T12:08:29;7.30;;;3.47;;
12359;SDS011;6244;51.460;7.090;2023-08-08T12:13:26;8.13;;;3.00;;
12359;SDS011;6244;51.460;7.090;2023-08-08T12:18:25;5.43;;;3.33;;
12359;SDS011;6244;51.460;7.090;2023-08-08T12:23:28;9.30;;;3.28;;
12359;SDS011;6244;51.460;7.090;2023-08-08T12:28:25;6.55;;;3.70;;
12359;SDS011;6244;51.460;7.090;2023-08-08T12:33:21;6.80;;;3.47;;
12359;SDS011;6244;51.460;7.090;2023-08-08T12:38:19;4.32;;;3.20;;
12359;SDS011;6244;51.460;7.090;2023-08-08T12:43:16;8.65;;;3.50;;
12359;SDS011;6244;51.460;7.090;2023-08-08T12:48:13;4.93;;;3.72;;
12359;SDS011;6244;51.460;7.090;2023-08-08T12:53:10;5.05;;;3.45;;
12359;SDS011;6244;51.460;7.090;2023-08-08T12:58:08;7.07;;;3.58;;
12359;SDS011;6244;51.460;7.090;2023-08-08T13:03:04;7.35;;;3.90;;
12359;SDS011;6244;51.460;7.090;2023-08-08T13:08:01;7.97;;;3.60;;
12359;SDS011;6244;51.460;7.090;2023-08-08T13:12:58;6.38;;;3.40;;
12359;SDS011;6244;51.460;7.090;2023-08-08T13:17:55;6.13;;;3.67;;
12359;SDS011;6244;51.460;7.090;2023-08-08T13:22:52;7.47;;;3.83;;
12359;SDS011;6244;51.460;7.090;2023-08-08T13:27:49;6.97;;;3.60;;
12359;SDS011;6244;51.460;7.090;2023-08-08T13:32:46;4.35;;;3.15;;
12359;SDS011;6244;51.460;7.090;2023-08-08T13:37:44;4.82;;;3.10;;
12359;SDS011;6244;51.460;7.090;2023-08-08T13:42:44;4.10;;;3.08;;
12359;SDS011;6244;51.460;7.090;2023-08-08T13:47:43;4.28;;;3.20;;
12359;SDS011;6244;51.460;7.090;2023-08-08T13:52:40;7.22;;;3.72;;
12359;SDS011;6244;51.460;7.090;2023-08-08T13:57:38;6.30;;;3.40;;
12359;SDS011;6244;51.460;7.090;2023-08-08T14:02:34;6.75;;;3.60;;
12359;SDS011;6244;51.460;7.090;2023-08-08T14:07:31;4.72;;;2.83;;
12359;SDS011;6244;51.460;7.090;2023-08-08T14:12:27;4.47;;;2.92;;
12359;SDS011;6244;51.460;7.090;2023-08-08T14:17:25;4.63;;;2.78;;
12359;SDS011;6244;51.460;7.090;2023-08-08T14:22:22;5.75;;;3.05;;
12359;SDS011;6244;51.460;7.090;2023-08-08T14:27:18;4.40;;;2.90;;
12359;SDS011;6244;51.460;7.090;2023-08-08T14:32:15;4.85;;;2.80;;
12359;SDS011;6244;51.460;7.090;2023-08-08T14:37:13;4.47;;;2.78;;
12359;SDS011;6244;51.460;7.090;2023-08-08T14:42:10;5.15;;;2.80;;
12359;SDS011;6244;51.460;7.090;2023-08-08T14:47:06;4.25;;;2.90;;
12359;SDS011;6244;51.460;7.090;2023-08-08T14:52:03;4.68;;;2.70;;
12359;SDS011;6244;51.460;7.090;2023-08-08T14:57:01;5.25;;;2.70;;
12359;SDS011;6244;51.460;7.090;2023-08-08T15:01:58;4.45;;;2.60;;
12359;SDS011;6244;51.460;7.090;2023-08-08T15:06:54;3.17;;;2.15;;
12359;SDS011;6244;51.460;7.090;2023-08-08T15:11:51;3.83;;;2.30;;
12359;SDS011;6244;51.460;7.090;2023-08-08T15:16:52;6.70;;;2.20;;
12359;SDS011;6244;51.460;7.090;2023-08-08T15:21:49;5.53;;;2.20;;
12359;SDS011;6244;51.460;7.090;2023-08-08T15:26:46;4.68;;;2.13;;
12359;SDS011;6244;51.460;7.090;2023-08-08T15:31:42;3.20;;;1.77;;
12359;SDS011;6244;51.460;7.090;2023-08-08T15:36:40;3.05;;;1.80;;
12359;SDS011;6244;51.460;7.090;2023-08-08T15:41:37;4.43;;;1.70;;
12359;SDS011;6244;51.460;7.090;2023-08-08T15:46:33;3.53;;;1.80;;
12359;SDS011;6244;51.460;7.090;2023-08-08T15:51:30;2.47;;;1.35;;
12359;SDS011;6244;51.460;7.090;2023-08-08T15:56:28;2.10;;;1.50;;
12359;SDS011;6244;51.460;7.090;2023-08-08T16:01:24;2.03;;;1.52;;
12359;SDS011;6244;51.460;7.090;2023-08-08T16:06:21;2.63;;;1.70;;
12359;SDS011;6244;51.460;7.090;2023-08-08T16:11:18;2.50;;;1.83;;
12359;SDS011;6244;51.460;7.090;2023-08-08T16:16:16;3.20;;;1.52;;
12359;SDS011;6244;51.460;7.090;2023-08-08T16:21:12;2.97;;;1.67;;
12359;SDS011;6244;51.460;7.090;2023-08-08T16:26:09;2.33;;;1.55;;
12359;SDS011;6244;51.460;7.090;2023-08-08T16:31:05;2.75;;;1.65;;
12359;SDS011;6244;51.460;7.090;2023-08-08T16:36:04;3.92;;;1.98;;
12359;SDS011;6244;51.460;7.090;2023-08-08T16:41:01;2.85;;;1.85;;
12359;SDS011;6244;51.460;7.090;2023-08-08T16:45:57;2.80;;;1.90;;
12359;SDS011;6244;51.460;7.090;2023-08-08T16:50:54;4.28;;;3.00;;
12359;SDS011;6244;51.460;7.090;2023-08-08T16:55:52;2.40;;;1.70;;
12359;SDS011;6244;51.460;7.090;2023-08-08T17:00:49;4.72;;;2.10;;
12359;SDS011;6244;51.460;7.090;2023-08-08T17:05:46;1.98;;;1.70;;
12359;SDS011;6244;51.460;7.090;2023-08-08T17:10:43;2.05;;;1.80;;
12359;SDS011;6244;51.460;7.090;2023-08-08T17:15:41;10.40;;;2.35;;
12359;SDS011;6244;51.460;7.090;2023-08-08T17:20:40;4.90;;;2.15;;
12359;SDS011;6244;51.460;7.090;2023-08-08T17:25:36;3.53;;;1.80;;
12359;SDS011;6244;51.460;7.090;2023-08-08T17:30:33;3.28;;;1.98;;
12359;SDS011;6244;51.460;7.090;2023-08-08T17:35:32;3.03;;;2.17;;
12359;SDS011;6244;51.460;7.090;2023-08-08T17:40:29;3.80;;;2.42;;
12359;SDS011;6244;51.460;7.090;2023-08-08T17:45:25;5.28;;;2.15;;
12359;SDS011;6244;51.460;7.090;2023-08-08T17:50:22;2.78;;;2.15;;
12359;SDS011;6244;51.460;7.090;2023-08-08T17:55:20;3.92;;;2.30;;
12359;SDS011;6244;51.460;7.090;2023-08-08T18:00:17;3.90;;;2.63;;
12359;SDS011;6244;51.460;7.090;2023-08-08T18:05:14;4.32;;;2.72;;
12359;SDS011;6244;51.460;7.090;2023-08-08T18:10:11;3.72;;;2.90;;
12359;SDS011;6244;51.460;7.090;2023-08-08T18:15:09;4.90;;;2.78;;
12359;SDS011;6244;51.460;7.090;2023-08-08T18:20:07;3.80;;;3.00;;
12359;SDS011;6244;51.460;7.090;2023-08-08T18:25:04;6.22;;;3.13;;
12359;SDS011;6244;51.460;7.090;2023-08-08T18:30:02;5.35;;;4.00;;
12359;SDS011;6244;51.460;7.090;2023-08-08T18:35:01;6.90;;;4.65;;
12359;SDS011;6244;51.460;7.090;2023-08-08T18:39:58;5.13;;;4.30;;
12359;SDS011;6244;51.460;7.090;2023-08-08T18:44:54;5.80;;;4.07;;
12359;SDS011;6244;51.460;7.090;2023-08-08T18:49:51;5.13;;;3.88;;
12359;SDS011;6244;51.460;7.090;2023-08-08T18:54:49;4.88;;;4.00;;
12359;SDS011;6244;51.460;7.090;2023-08-08T18:59:46;5.38;;;4.25;;
12359;SDS011;6244;51.460;7.090;2023-08-08T19:04:42;7.05;;;4.57;;
12359;SDS011;6244;51.460;7.090;2023-08-08T19:09:39;7.10;;;5.07;;
12359;SDS011;6244;51.460;7.090;2023-08-08T19:14:37;6.60;;;4.60;;
12359;SDS011;6244;51.460;7.090;2023-08-08T19:19:33;7.20;;;5.18;;
12359;SDS011;6244;51.460;7.090;2023-08-08T19:24:30;7.38;;;4.93;;
12359;SDS011;6244;51.460;7.090;2023-08-08T19:29:27;6.40;;;5.22;;
12359;SDS011;6244;51.460;7.090;2023-08-08T19:34:25;10.95;;;5.43;;
12359;SDS011;6244;51.460;7.090;2023-08-08T19:39:22;9.07;;;5.95;;
12359;SDS011;6244;51.460;7.090;2023-08-08T19:44:18;8.00;;;5.38;;
12359;SDS011;6244;51.460;7.090;2023-08-08T19:49:15;6.95;;;5.35;;
12359;SDS011;6244;51.460;7.090;2023-08-08T19:54:13;8.65;;;5.70;;
12359;SDS011;6244;51.460;7.090;2023-08-08T19:59:09;6.90;;;4.78;;
12359;SDS011;6244;51.460;7.090;2023-08-08T20:04:06;6.28;;;4.90;;
12359;SDS011;6244;51.460;7.090;2023-08-08T20:09:03;5.95;;;4.47;;
12359;SDS011;6244;51.460;7.090;2023-08-08T20:14:01;6.22;;;5.10;;
12359;SDS011;6244;51.460;7.090;2023-08-08T20:18:58;8.15;;;6.07;;
12359;SDS011;6244;51.460;7.090;2023-08-08T20:23:54;9.73;;;6.00;;
12359;SDS011;6244;51.460;7.090;2023-08-08T20:28:51;10.90;;;6.35;;
12359;SDS011;6244;51.460;7.090;2023-08-08T20:33:49;10.35;;;6.85;;
12359;SDS011;6244;51.460;7.090;2023-08-08T20:38:47;11.65;;;6.68;;
12359;SDS011;6244;51.460;7.090;2023-08-08T20:43:43;9.05;;;6.80;;
12359;SDS011;6244;51.460;7.090;2023-08-08T20:48:40;8.93;;;7.03;;
12359;SDS011;6244;51.460;7.090;2023-08-08T20:53:39;10.73;;;7.70;;
12359;SDS011;6244;51.460;7.090;2023-08-08T20:58:35;10.38;;;7.75;;
12359;SDS011;6244;51.460;7.090;2023-08-08T21:03:32;10.65;;;8.15;;
12359;SDS011;6244;51.460;7.090;2023-08-08T21:08:28;11.05;;;7.65;;
12359;SDS011;6244;51.460;7.090;2023-08-08T21:13:27;9.85;;;7.65;;
12359;SDS011;6244;51.460;7.090;2023-08-08T21:18:23;10.48;;;7.05;;
12359;SDS011;6244;51.460;7.090;2023-08-08T21:23:20;8.85;;;6.35;;
12359;SDS011;6244;51.460;7.090;2023-08-08T21:28:17;9.05;;;6.80;;
12359;SDS011;6244;51.460;7.090;2023-08-08T21:33:14;7.75;;;6.13;;
12359;SDS011;6244;51.460;7.090;2023-08-08T21:38:11;9.15;;;6.45;;
12359;SDS011;6244;51.460;7.090;2023-08-08T21:43:07;8.63;;;5.75;;
12359;SDS011;6244;51.460;7.090;2023-08-08T21:48:04;8.30;;;5.85;;
12359;SDS011;6244;51.460;7.090;2023-08-08T21:53:02;8.90;;;5.78;;
12359;SDS011;6244;51.460;7.090;2023-08-08T21:57:59;7.05;;;5.15;;
12359;SDS011;6244;51.460;7.090;2023-08-08T22:02:55;8.10;;;5.22;;
12359;SDS011;6244;51.460;7.090;2023-08-08T22:07:52;7.05;;;5.05;;
12359;SDS011;6244;51.460;7.090;2023-08-08T22:12:55;7.90;;;4.85;;
12359;SDS011;6244;51.460;7.090;2023-08-08T22:17:52;9.55;;;4.90;;
12359;SDS011;6244;51.460;7.090;2023-08-08T22:22:48;6.18;;;4.72;;
12359;SDS011;6244;51.460;7.090;2023-08-08T22:27:45;6.78;;;4.70;;
12359;SDS011;6244;51.460;7.090;2023-08-08T22:32:43;6.20;;;4.30;;
12359;SDS011;6244;51.460;7.090;2023-08-08T22:37:39;7.05;;;4.75;;
12359;SDS011;6244;51.460;7.090;2023-08-08T22:42:36;7.35;;;4.80;;
12359;SDS011;6244;51.460;7.090;2023-08-08T22:47:33;9.20;;;4.40;;
12359;SDS011;6244;51.460;7.090;2023-08-08T22:52:31;6.68;;;4.47;;
12359;SDS011;6244;51.460;7.090;2023-08-08T22:57:28;6.38;;;3.97;;
12359;SDS011;6244;51.460;7.090;2023-08-08T23:02:24;6.60;;;4.20;;
12359;SDS011;6244;51.460;7.090;2023-08-08T23:07:21;7.03;;;3.75;;
12359;SDS011;6244;51.460;7.090;2023-08-08T23:12:19;5.35;;;3.40;;
12359;SDS011;6244;51.460;7.090;2023-08-08T23:17:15;4.63;;;3.00;;
12359;SDS011;6244;51.460;7.090;2023-08-08T23:22:12;4.65;;;3.20;;
12359;SDS011;6244;51.460;7.090;2023-08-08T23:27:08;3.60;;;2.72;;
12359;SDS011;6244;51.460;7.090;2023-08-08T23:32:06;3.78;;;2.95;;
12359;SDS011;6244;51.460;7.090;2023-08-08T23:37:04;4.05;;;3.00;;
12359;SDS011;6244;51.460;7.090;2023-08-08T23:42:02;3.28;;;2.63;;
12359;SDS011;6244;51.460;7.090;2023-08-08T23:46:59;4.30;;;3.00;;
12359;SDS011;6244;51.460;7.090;2023-08-08T23:51:57;5.50;;;2.78;;
12359;SDS011;6244;51.460;7.090;2023-08-08T23:56:54;3.40;;;2.80;;
